Time;durP1;ratioP1;P1;durP2;ratioP2;P2;SDS_P1;SDS_P2;PMS_P1;PMS_P2;Temp;Humidity;BMP_temperature;BMP_pressure;BME280_temperature;BME280_humidity;BME280_pressure;Samples;Min_cycle;Max_cycle;Signal;HPM_P1;HPM_P2
2023/04/12 00:01:03;;;;;;;7.53;2.38;;;7.50;99.90;;;;;;4944473;28;20121;-52
2023/04/12 00:03:29;;;;;;;13.10;2.70;;;7.60;99.90;;;;;;4945991;28;20054;-53
2023/04/12 00:05:55;;;;;;;10.65;2.30;;;7.60;99.90;;;;;;4945114;28;20070;-51
2023/04/12 00:08:25;;;;;;;7.90;2.53;;;7.70;99.90;;;;;;4945794;28;20050;-52
2023/04/12 00:10:51;;;;;;;10.48;2.70;;;7.60;99.90;;;;;;4945456;28;20566;-52
2023/04/12 00:13:18;;;;;;;8.15;2.45;;;7.60;99.90;;;;;;4945447;28;20532;-51
2023/04/12 00:15:45;;;;;;;12.20;3.38;;;7.60;99.90;;;;;;4937382;28;20051;-52
2023/04/12 00:18:10;;;;;;;9.80;2.55;;;7.60;99.90;;;;;;4935030;28;20042;-51
2023/04/12 00:20:37;;;;;;;11.85;2.45;;;7.60;99.90;;;;;;4944036;28;20066;-52
2023/04/12 00:23:03;;;;;;;10.68;2.30;;;7.60;99.90;;;;;;4943720;28;20366;-52
2023/04/12 00:25:28;;;;;;;9.20;2.40;;;7.60;99.90;;;;;;4944040;28;20043;-51
2023/04/12 00:27:55;;;;;;;11.63;2.85;;;7.60;99.90;;;;;;4945106;28;20102;-51
2023/04/12 00:30:21;;;;;;;7.93;3.05;;;7.60;99.90;;;;;;4944247;28;20054;-51
2023/04/12 00:32:46;;;;;;;13.52;2.80;;;7.60;99.90;;;;;;4943701;28;20074;-52
2023/04/12 00:35:12;;;;;;;11.80;2.80;;;7.60;99.90;;;;;;4935430;28;20058;-51
2023/04/12 00:37:38;;;;;;;13.13;2.90;;;7.60;99.90;;;;;;4936775;28;20047;-54
2023/04/12 00:40:07;;;;;;;9.45;2.90;;;7.60;99.90;;;;;;4940438;28;20096;-55
2023/04/12 00:42:34;;;;;;;10.95;2.47;;;7.60;99.90;;;;;;4941654;28;20351;-52
2023/04/12 00:45:00;;;;;;;10.05;2.70;;;7.60;99.90;;;;;;4939157;28;20047;-52
2023/04/12 00:47:28;;;;;;;11.68;2.80;;;7.70;99.90;;;;;;4937709;28;20652;-51
2023/04/12 00:49:54;;;;;;;11.57;2.50;;;7.70;99.90;;;;;;4941234;28;20051;-51
2023/04/12 00:52:21;;;;;;;10.18;2.80;;;7.70;99.90;;;;;;4939815;28;20042;-52
2023/04/12 00:54:46;;;;;;;13.23;2.60;;;7.70;99.90;;;;;;4940541;28;20158;-54
2023/04/12 00:57:12;;;;;;;12.27;2.72;;;7.70;99.90;;;;;;4935243;28;20043;-50
2023/04/12 00:59:38;;;;;;;13.27;2.65;;;7.70;99.90;;;;;;4939954;28;20484;-51
2023/04/12 01:02:06;;;;;;;12.48;3.15;;;7.70;99.90;;;;;;4939520;28;21570;-51
2023/04/12 01:04:33;;;;;;;12.68;2.72;;;7.80;99.90;;;;;;4939264;28;20050;-51
2023/04/12 01:07:19;;;;;;;12.60;2.95;;;7.80;99.90;;;;;;4940734;28;20047;-52
2023/04/12 01:10:11;;;;;;;10.73;3.03;;;7.80;99.90;;;;;;4943663;28;20059;-51
2023/04/12 01:12:43;;;;;;;11.50;2.92;;;7.90;99.90;;;;;;4941306;28;21869;-51
2023/04/12 01:15:12;;;;;;;8.70;2.70;;;7.90;99.90;;;;;;4945215;28;20047;-52
2023/04/12 01:17:46;;;;;;;9.93;2.92;;;7.90;99.90;;;;;;4931564;28;20051;-51
2023/04/12 01:20:22;;;;;;;11.00;2.90;;;7.90;99.90;;;;;;4945662;28;20039;-51
2023/04/12 01:23:25;;;;;;;10.18;2.67;;;7.90;99.90;;;;;;4941157;28;20568;-51
2023/04/12 01:26:20;;;;;;;11.13;2.70;;;8.00;99.90;;;;;;4941104;28;20141;-52
2023/04/12 01:28:51;;;;;;;10.98;2.90;;;8.00;99.90;;;;;;4941531;28;20047;-51
2023/04/12 01:31:18;;;;;;;10.30;3.00;;;8.00;99.90;;;;;;4942016;28;20051;-51
2023/04/12 01:33:45;;;;;;;8.23;2.65;;;8.00;99.90;;;;;;4937896;28;20572;-51
2023/04/12 01:36:15;;;;;;;12.57;2.97;;;8.00;99.90;;;;;;4939546;28;20066;-51
2023/04/12 01:38:42;;;;;;;8.32;2.78;;;8.10;99.90;;;;;;4939276;28;20498;-52
2023/04/12 01:41:09;;;;;;;11.70;2.45;;;8.10;99.90;;;;;;4937486;28;20062;-50
2023/04/12 01:43:45;;;;;;;14.57;3.10;;;8.10;99.90;;;;;;4939049;28;20089;-51
2023/04/12 01:46:17;;;;;;;14.52;3.20;;;8.10;99.90;;;;;;4941475;28;20098;-51
2023/04/12 01:48:49;;;;;;;10.67;2.93;;;8.20;99.90;;;;;;4939317;28;20392;-52
2023/04/12 01:51:28;;;;;;;9.43;2.67;;;8.20;99.90;;;;;;4938996;28;20837;-52
2023/04/12 01:54:01;;;;;;;11.13;3.20;;;8.20;99.90;;;;;;4936514;28;20046;-52
2023/04/12 01:56:32;;;;;;;10.10;2.63;;;8.20;99.90;;;;;;4941667;28;20820;-52
2023/04/12 01:58:59;;;;;;;11.98;3.03;;;8.30;99.90;;;;;;4936495;28;20055;-51
2023/04/12 02:01:27;;;;;;;13.07;3.17;;;8.30;99.90;;;;;;4941894;28;22098;-51
2023/04/12 02:03:57;;;;;;;12.07;3.30;;;8.20;99.90;;;;;;4938329;28;20047;-51
2023/04/12 02:06:25;;;;;;;11.25;2.88;;;8.30;99.90;;;;;;4939260;28;20047;-51
2023/04/12 02:08:57;;;;;;;14.65;3.15;;;8.30;99.90;;;;;;4938001;28;20055;-51
2023/04/12 02:11:23;;;;;;;9.73;3.17;;;8.30;99.90;;;;;;4937142;28;20394;-50
2023/04/12 02:13:49;;;;;;;10.38;2.65;;;8.30;99.90;;;;;;4937963;28;20038;-51
2023/04/12 02:16:15;;;;;;;10.43;2.65;;;8.30;99.90;;;;;;4930310;28;20054;-51
2023/04/12 02:18:41;;;;;;;10.43;3.10;;;8.30;99.90;;;;;;4936790;28;20043;-52
2023/04/12 02:21:07;;;;;;;11.05;2.95;;;8.30;99.90;;;;;;4930582;28;20085;-50
2023/04/12 02:23:33;;;;;;;10.15;3.00;;;8.30;99.90;;;;;;4938313;28;20051;-51
2023/04/12 02:25:58;;;;;;;11.15;2.47;;;8.30;99.90;;;;;;4930279;28;20142;-51
2023/04/12 02:28:24;;;;;;;14.48;2.80;;;8.30;99.90;;;;;;4942047;28;20047;-52
2023/04/12 02:30:52;;;;;;;7.28;2.45;;;8.30;99.90;;;;;;4938990;28;20042;-51
2023/04/12 02:33:20;;;;;;;7.45;2.65;;;8.30;99.90;;;;;;4940934;28;20094;-51
2023/04/12 02:35:46;;;;;;;9.23;2.67;;;8.30;99.90;;;;;;4934794;28;20492;-51
2023/04/12 02:38:12;;;;;;;6.78;2.47;;;8.30;99.90;;;;;;4936222;28;20059;-50
2023/04/12 02:40:42;;;;;;;7.18;2.70;;;8.30;99.90;;;;;;4935742;28;20047;-51
2023/04/12 02:43:08;;;;;;;7.20;2.47;;;8.30;99.90;;;;;;4936342;28;20556;-52
2023/04/12 02:45:35;;;;;;;10.52;2.55;;;8.30;99.90;;;;;;4939542;28;20067;-51
2023/04/12 02:48:01;;;;;;;9.95;2.47;;;8.30;99.90;;;;;;4939037;28;20066;-51
2023/04/12 02:50:27;;;;;;;10.48;2.90;;;8.30;99.90;;;;;;4938981;28;20051;-51
2023/04/12 02:52:53;;;;;;;8.45;2.38;;;8.30;99.90;;;;;;4940663;28;20053;-50
2023/04/12 02:55:18;;;;;;;9.40;2.95;;;8.30;99.90;;;;;;4937895;28;20417;-52
2023/04/12 02:57:44;;;;;;;10.98;2.45;;;8.30;99.90;;;;;;4942417;28;20066;-51
2023/04/12 03:00:11;;;;;;;10.32;2.72;;;8.30;99.90;;;;;;4949245;28;20130;-51
2023/04/12 03:02:37;;;;;;;8.90;2.50;;;8.30;99.90;;;;;;4941778;28;20197;-52
2023/04/12 03:05:03;;;;;;;10.68;2.80;;;8.30;99.90;;;;;;4943578;28;20601;-51
2023/04/12 03:07:29;;;;;;;7.22;2.10;;;8.30;99.90;;;;;;4946386;28;20043;-51
2023/04/12 03:09:55;;;;;;;8.88;2.35;;;8.30;99.90;;;;;;4948353;28;20054;-50
2023/04/12 03:12:21;;;;;;;6.78;2.25;;;8.20;99.90;;;;;;4947615;28;20089;-51
2023/04/12 03:14:47;;;;;;;6.07;2.28;;;8.30;99.90;;;;;;4949524;28;20039;-50
2023/04/12 03:17:13;;;;;;;6.47;2.22;;;8.20;99.90;;;;;;4943098;28;20403;-51
2023/04/12 03:19:38;;;;;;;7.90;2.38;;;8.30;99.90;;;;;;4948248;28;20043;-51
2023/04/12 03:22:05;;;;;;;10.40;2.20;;;8.30;99.90;;;;;;4945439;28;20616;-51
2023/04/12 03:24:34;;;;;;;5.45;1.88;;;8.30;99.90;;;;;;4946102;28;20054;-51
2023/04/12 03:27:01;;;;;;;6.85;2.50;;;8.30;99.90;;;;;;4936301;28;20069;-51
2023/04/12 03:29:27;;;;;;;11.13;2.47;;;8.30;99.90;;;;;;4944597;28;20051;-51
2023/04/12 03:31:53;;;;;;;8.68;2.50;;;8.30;99.90;;;;;;4934481;28;20051;-50
2023/04/12 03:34:19;;;;;;;10.43;2.38;;;8.30;99.90;;;;;;4939126;28;20101;-52
2023/04/12 03:36:45;;;;;;;6.70;2.03;;;8.30;99.90;;;;;;4939678;28;20101;-52
2023/04/12 03:39:10;;;;;;;8.55;2.05;;;8.30;99.90;;;;;;4939374;28;20078;-51
2023/04/12 03:41:36;;;;;;;3.92;1.90;;;8.30;99.90;;;;;;4941324;28;20174;-51
2023/04/12 03:44:02;;;;;;;9.13;2.22;;;8.30;99.90;;;;;;4942700;28;20050;-51
2023/04/12 03:46:28;;;;;;;8.82;1.95;;;8.30;99.90;;;;;;4944110;28;20518;-51
2023/04/12 03:48:54;;;;;;;7.05;1.75;;;8.30;99.90;;;;;;4936669;28;20047;-51
2023/04/12 03:51:21;;;;;;;7.25;2.40;;;8.30;99.90;;;;;;4942075;28;20129;-51
2023/04/12 03:53:46;;;;;;;6.07;2.13;;;8.30;99.90;;;;;;4938788;28;20039;-51
2023/04/12 03:56:12;;;;;;;8.20;2.42;;;8.30;99.90;;;;;;4946134;28;20046;-51
2023/04/12 03:58:38;;;;;;;8.88;2.22;;;8.30;99.90;;;;;;4943875;28;20046;-51
2023/04/12 04:01:04;;;;;;;6.53;1.90;;;8.30;99.90;;;;;;4940723;28;20046;-52
2023/04/12 04:03:33;;;;;;;5.03;2.08;;;8.20;99.90;;;;;;4943007;28;20510;-51
2023/04/12 04:06:00;;;;;;;7.03;2.03;;;8.30;99.90;;;;;;4940614;28;20043;-54
2023/04/12 04:08:28;;;;;;;6.30;1.70;;;8.30;99.90;;;;;;4941704;28;20134;-51
2023/04/12 04:10:56;;;;;;;11.50;2.38;;;8.30;99.90;;;;;;4942193;28;20744;-52
2023/04/12 04:13:21;;;;;;;7.15;1.98;;;8.30;99.90;;;;;;4940438;28;20397;-51
2023/04/12 04:15:55;;;;;;;4.95;1.90;;;8.20;99.90;;;;;;4942461;28;20089;-50
2023/04/12 04:18:21;;;;;;;9.38;2.13;;;8.20;99.90;;;;;;4940800;28;20058;-51
2023/04/12 04:20:47;;;;;;;9.55;2.20;;;8.20;99.90;;;;;;4943075;28;20101;-53
2023/04/12 04:23:12;;;;;;;8.32;1.92;;;8.20;99.90;;;;;;4936091;28;20051;-51
2023/04/12 04:25:38;;;;;;;6.93;2.00;;;8.20;99.90;;;;;;4940327;28;20069;-51
2023/04/12 04:28:06;;;;;;;7.47;2.08;;;8.10;99.90;;;;;;4941556;28;20194;-51
2023/04/12 04:30:37;;;;;;;5.70;2.00;;;8.20;99.90;;;;;;4940206;28;20071;-52
2023/04/12 04:33:07;;;;;;;10.98;2.60;;;8.10;99.90;;;;;;4940033;28;20480;-51
2023/04/12 04:35:33;;;;;;;5.90;2.20;;;8.10;99.90;;;;;;4941319;28;20054;-52
2023/04/12 04:38:01;;;;;;;5.60;2.22;;;8.10;99.90;;;;;;4928242;28;20732;-51
2023/04/12 04:40:28;;;;;;;10.18;2.53;;;8.10;99.90;;;;;;4940642;28;20044;-51
2023/04/12 04:42:53;;;;;;;8.52;2.60;;;8.10;99.90;;;;;;4938271;28;20039;-51
2023/04/12 04:45:25;;;;;;;5.90;2.42;;;8.10;99.90;;;;;;4941640;28;24534;-53
2023/04/12 04:47:52;;;;;;;6.10;2.30;;;8.10;99.90;;;;;;4942362;28;20658;-51
2023/04/12 04:50:20;;;;;;;8.82;2.70;;;8.10;99.90;;;;;;4941062;28;20433;-51
2023/04/12 04:52:47;;;;;;;11.57;2.58;;;8.10;99.90;;;;;;4953592;28;21383;-51
2023/04/12 04:55:13;;;;;;;7.80;2.53;;;8.00;99.90;;;;;;4938679;28;20521;-51
2023/04/12 04:57:40;;;;;;;6.13;2.72;;;8.10;99.90;;;;;;4939788;28;21778;-52
2023/04/12 05:00:10;;;;;;;7.38;2.53;;;8.10;99.90;;;;;;4938054;28;20043;-51
2023/04/12 05:02:41;;;;;;;12.38;3.15;;;8.00;99.90;;;;;;4939481;28;20498;-51
2023/04/12 05:05:12;;;;;;;6.05;2.60;;;8.00;99.90;;;;;;4934807;28;20047;-51
2023/04/12 05:07:38;;;;;;;10.52;3.17;;;8.00;99.90;;;;;;4931627;28;20093;-51
2023/04/12 05:10:05;;;;;;;8.38;2.60;;;8.00;99.90;;;;;;4928185;28;20053;-52
2023/04/12 05:12:30;;;;;;;9.60;2.90;;;8.00;99.90;;;;;;4926388;28;20105;-51
2023/04/12 05:14:56;;;;;;;6.50;2.70;;;7.90;99.90;;;;;;4923729;28;20038;-52
2023/04/12 05:17:22;;;;;;;11.00;2.95;;;7.90;99.90;;;;;;4932410;28;20150;-54
2023/04/12 05:19:48;;;;;;;8.00;3.35;;;7.90;99.90;;;;;;4931387;28;20114;-51
2023/04/12 05:22:14;;;;;;;7.95;2.88;;;7.90;99.90;;;;;;4930129;28;20047;-51
2023/04/12 05:24:39;;;;;;;7.57;2.90;;;7.90;99.90;;;;;;4936957;28;20137;-51
2023/04/12 05:27:05;;;;;;;11.20;3.63;;;7.90;99.90;;;;;;4934261;28;20395;-50
2023/04/12 05:29:31;;;;;;;8.35;3.15;;;7.90;99.90;;;;;;4933970;28;20169;-51
2023/04/12 05:31:58;;;;;;;11.15;3.15;;;7.90;99.90;;;;;;4936779;28;20083;-51
2023/04/12 05:34:23;;;;;;;12.10;3.63;;;7.90;99.90;;;;;;4917806;28;20047;-52
2023/04/12 05:36:49;;;;;;;9.30;3.17;;;7.90;99.90;;;;;;4928447;28;20070;-51
2023/04/12 05:39:15;;;;;;;11.30;3.92;;;7.80;99.90;;;;;;4941035;28;20043;-52
2023/04/12 05:41:41;;;;;;;9.07;3.53;;;7.80;99.90;;;;;;4924399;28;20074;-52
2023/04/12 05:44:06;;;;;;;10.88;3.70;;;7.80;99.90;;;;;;4939587;28;20208;-51
2023/04/12 05:46:32;;;;;;;6.75;3.03;;;7.80;99.90;;;;;;4938383;28;20163;-51
2023/04/12 05:48:58;;;;;;;7.80;3.65;;;7.80;99.90;;;;;;4945850;28;20174;-51
2023/04/12 05:51:24;;;;;;;9.77;3.45;;;7.80;99.90;;;;;;4933747;28;20053;-51
2023/04/12 05:53:50;;;;;;;6.97;3.15;;;7.80;99.90;;;;;;4931089;28;20075;-51
2023/04/12 05:56:16;;;;;;;8.55;3.58;;;7.80;99.90;;;;;;4941683;28;20104;-51
2023/04/12 05:58:42;;;;;;;9.38;3.72;;;7.80;99.90;;;;;;4943812;28;20047;-51
2023/04/12 06:01:07;;;;;;;8.95;3.53;;;7.80;99.90;;;;;;4939269;28;20505;-53
2023/04/12 06:03:33;;;;;;;10.48;3.55;;;7.80;99.90;;;;;;4939217;28;20047;-51
2023/04/12 06:06:01;;;;;;;11.82;3.80;;;7.80;99.90;;;;;;4939947;28;20470;-51
2023/04/12 06:08:28;;;;;;;5.03;2.67;;;7.80;99.90;;;;;;4931086;28;20050;-52
2023/04/12 06:10:54;;;;;;;9.43;3.50;;;7.80;99.90;;;;;;4931189;28;20043;-55
2023/04/12 06:13:20;;;;;;;9.20;3.53;;;7.80;99.90;;;;;;4933309;28;20182;-53
2023/04/12 06:15:45;;;;;;;8.70;3.33;;;7.80;99.90;;;;;;4941335;28;20718;-52
2023/04/12 06:18:11;;;;;;;8.40;3.00;;;7.80;99.90;;;;;;4943732;28;20042;-52
2023/04/12 06:20:40;;;;;;;5.30;2.70;;;7.80;99.90;;;;;;4943980;28;20047;-55
2023/04/12 06:23:06;;;;;;;9.85;2.97;;;7.80;99.90;;;;;;4942876;28;20109;-52
2023/04/12 06:25:33;;;;;;;7.38;3.40;;;7.80;99.90;;;;;;4941393;28;20050;-52
2023/04/12 06:27:58;;;;;;;10.35;3.10;;;7.70;99.90;;;;;;4943555;28;20117;-53
2023/04/12 06:30:24;;;;;;;7.20;3.20;;;7.70;99.90;;;;;;4942244;28;20177;-54
2023/04/12 06:32:50;;;;;;;7.65;2.63;;;7.70;99.90;;;;;;4938741;28;20054;-53
2023/04/12 06:35:16;;;;;;;7.60;3.13;;;7.70;99.90;;;;;;4940793;28;20097;-54
2023/04/12 06:37:42;;;;;;;7.20;2.88;;;7.70;99.90;;;;;;4943067;28;20054;-53
2023/04/12 06:40:08;;;;;;;9.75;3.45;;;7.70;99.90;;;;;;4944166;28;20582;-53
2023/04/12 06:42:34;;;;;;;6.70;3.28;;;7.70;99.90;;;;;;4929564;28;20047;-55
2023/04/12 06:45:00;;;;;;;9.15;3.03;;;7.70;99.90;;;;;;4943059;28;20097;-52
2023/04/12 06:47:25;;;;;;;9.73;3.13;;;7.70;99.90;;;;;;4933660;28;20109;-53
2023/04/12 06:49:54;;;;;;;6.22;2.90;;;7.70;99.90;;;;;;4941465;28;20046;-52
2023/04/12 06:52:25;;;;;;;6.75;3.35;;;7.70;99.90;;;;;;4941307;28;20066;-55
2023/04/12 06:54:51;;;;;;;10.00;2.88;;;7.70;99.90;;;;;;4942695;28;20050;-52
2023/04/12 06:57:17;;;;;;;8.48;3.00;;;7.80;99.90;;;;;;4941770;28;21080;-54
2023/04/12 06:59:43;;;;;;;7.97;2.92;;;7.70;99.90;;;;;;4944301;28;20047;-53
2023/04/12 07:02:09;;;;;;;8.32;3.00;;;7.70;99.90;;;;;;4943406;28;20054;-56
2023/04/12 07:04:35;;;;;;;7.32;2.92;;;7.80;99.90;;;;;;4940337;28;20051;-52
2023/04/12 07:07:00;;;;;;;9.73;3.10;;;7.70;99.90;;;;;;4941072;28;20051;-52
2023/04/12 07:09:26;;;;;;;8.38;3.15;;;7.70;99.90;;;;;;4940401;28;20074;-53
2023/04/12 07:11:52;;;;;;;5.53;3.10;;;7.70;99.90;;;;;;4938117;28;20042;-54
2023/04/12 07:14:17;;;;;;;6.95;3.10;;;7.70;99.90;;;;;;4943304;28;20052;-54
2023/04/12 07:16:43;;;;;;;6.53;2.92;;;7.70;99.90;;;;;;4942284;28;20039;-54
2023/04/12 07:19:09;;;;;;;6.22;3.33;;;7.70;99.90;;;;;;4942106;28;20082;-55
2023/04/12 07:21:35;;;;;;;8.15;3.55;;;7.70;99.90;;;;;;4940037;28;20050;-53
2023/04/12 07:24:00;;;;;;;6.10;3.28;;;7.70;99.90;;;;;;4943581;28;20050;-53
2023/04/12 07:26:26;;;;;;;7.88;3.55;;;7.70;99.90;;;;;;4942725;28;20089;-52
2023/04/12 07:28:52;;;;;;;7.00;3.10;;;7.70;99.90;;;;;;4929529;28;20198;-54
2023/04/12 07:31:18;;;;;;;5.85;3.03;;;7.70;99.90;;;;;;4941907;28;20513;-55
2023/04/12 07:33:43;;;;;;;6.28;2.80;;;7.70;99.90;;;;;;4941376;28;20070;-54
2023/04/12 07:36:10;;;;;;;8.13;3.20;;;7.80;99.90;;;;;;4940907;28;20059;-54
2023/04/12 07:38:36;;;;;;;7.68;3.10;;;7.80;99.90;;;;;;4947542;28;20055;-55
2023/04/12 07:41:02;;;;;;;6.57;3.30;;;7.80;99.90;;;;;;4940697;28;20387;-53
2023/04/12 07:43:27;;;;;;;5.70;2.78;;;7.80;99.90;;;;;;4926544;28;20062;-52
2023/04/12 07:45:54;;;;;;;7.47;2.90;;;7.70;99.90;;;;;;4946754;28;20866;-53
2023/04/12 07:48:20;;;;;;;5.85;2.78;;;7.80;99.90;;;;;;4934828;28;20713;-53
2023/04/12 07:50:46;;;;;;;6.55;2.90;;;7.80;99.90;;;;;;4944895;28;20047;-53
2023/04/12 07:53:23;;;;;;;4.30;2.80;;;7.80;99.90;;;;;;4945993;28;20472;-53
2023/04/12 07:55:49;;;;;;;5.05;2.80;;;7.80;99.90;;;;;;4933730;28;20073;-55
2023/04/12 07:58:16;;;;;;;4.80;3.13;;;7.80;99.90;;;;;;4943424;28;20512;-52
2023/04/12 08:00:43;;;;;;;5.70;2.65;;;7.90;99.90;;;;;;4940943;28;20062;-54
2023/04/12 08:03:11;;;;;;;5.90;2.83;;;7.90;99.90;;;;;;4945254;28;20051;-52
2023/04/12 08:05:37;;;;;;;5.47;2.97;;;7.90;99.90;;;;;;4945404;28;20110;-54
2023/04/12 08:08:03;;;;;;;5.60;2.60;;;7.90;99.90;;;;;;4945186;28;20138;-52
2023/04/12 08:10:30;;;;;;;6.40;3.00;;;7.90;99.90;;;;;;4942412;28;20049;-52
2023/04/12 08:12:56;;;;;;;3.88;2.90;;;8.00;99.90;;;;;;4945900;28;20047;-52
2023/04/12 08:15:22;;;;;;;3.08;2.60;;;8.00;99.90;;;;;;4943588;28;20042;-54
2023/04/12 08:17:47;;;;;;;4.97;2.88;;;8.00;99.90;;;;;;4943328;28;20271;-52
2023/04/12 08:20:16;;;;;;;5.40;3.00;;;8.00;99.90;;;;;;4945110;28;20073;-55
2023/04/12 08:22:44;;;;;;;3.38;2.72;;;8.10;99.90;;;;;;4944816;28;20137;-53
2023/04/12 08:25:10;;;;;;;5.90;2.85;;;8.10;99.90;;;;;;4944407;28;20557;-53
2023/04/12 08:27:38;;;;;;;5.10;2.83;;;8.10;99.90;;;;;;4942623;28;20142;-55
2023/04/12 08:30:04;;;;;;;4.25;2.95;;;8.20;99.90;;;;;;4944318;28;20056;-53
2023/04/12 08:32:30;;;;;;;5.57;3.20;;;8.20;99.90;;;;;;4945483;28;20422;-53
2023/04/12 08:34:56;;;;;;;3.58;2.90;;;8.20;99.90;;;;;;4941938;28;20490;-52
2023/04/12 08:37:21;;;;;;;3.72;2.90;;;8.20;99.90;;;;;;4943338;28;20046;-53
2023/04/12 08:39:47;;;;;;;3.47;2.92;;;8.20;99.90;;;;;;4943988;28;20469;-52
2023/04/12 08:42:17;;;;;;;4.63;2.80;;;8.30;99.90;;;;;;4941957;28;20051;-53
2023/04/12 08:44:43;;;;;;;5.22;2.90;;;8.30;99.90;;;;;;4943865;28;20126;-54
2023/04/12 08:47:10;;;;;;;3.22;2.85;;;8.30;99.90;;;;;;4943433;28;20050;-53
2023/04/12 08:49:37;;;;;;;7.07;3.15;;;8.30;99.90;;;;;;4942369;28;20042;-53
2023/04/12 08:52:08;;;;;;;5.60;3.22;;;8.40;99.90;;;;;;4944310;28;20046;-55
2023/04/12 08:54:34;;;;;;;4.63;3.10;;;8.40;99.90;;;;;;4933020;28;20551;-53
2023/04/12 08:57:03;;;;;;;4.38;3.20;;;8.40;99.90;;;;;;4941049;28;20072;-53
2023/04/12 08:59:30;;;;;;;3.92;3.03;;;8.40;99.90;;;;;;4941298;28;20130;-54
2023/04/12 09:01:57;;;;;;;5.78;3.47;;;8.40;99.90;;;;;;4943315;28;20576;-53
2023/04/12 09:04:25;;;;;;;3.75;3.33;;;8.40;99.90;;;;;;4932254;28;20173;-53
2023/04/12 09:06:51;;;;;;;6.00;3.28;;;8.40;99.90;;;;;;4939993;28;20051;-55
2023/04/12 09:09:17;;;;;;;5.63;3.90;;;8.40;99.90;;;;;;4942353;28;20108;-53
2023/04/12 09:11:43;;;;;;;6.55;4.30;;;8.40;99.90;;;;;;4943287;28;20050;-54
2023/04/12 09:14:21;;;;;;;5.93;4.25;;;8.50;99.90;;;;;;4941547;28;20102;-55
2023/04/12 09:16:47;;;;;;;6.28;4.25;;;8.50;99.90;;;;;;4943196;28;20050;-53
2023/04/12 09:19:13;;;;;;;5.82;4.50;;;8.50;99.90;;;;;;4943292;28;20047;-53
2023/04/12 09:21:59;;;;;;;4.97;4.45;;;8.60;99.90;;;;;;4941050;28;20055;-53
2023/04/12 09:24:25;;;;;;;6.82;4.53;;;8.60;99.90;;;;;;4940418;28;20109;-52
2023/04/12 09:27:04;;;;;;;7.30;4.80;;;8.60;99.90;;;;;;4932409;28;21108;-52
2023/04/12 09:29:30;;;;;;;5.10;4.32;;;8.60;99.90;;;;;;4943492;28;20051;-55
2023/04/12 09:32:05;;;;;;;5.57;4.60;;;8.70;99.90;;;;;;4941292;28;20791;-54
2023/04/12 09:34:32;;;;;;;6.30;4.97;;;8.70;99.90;;;;;;4943282;28;20047;-53
2023/04/12 09:36:58;;;;;;;6.07;4.90;;;8.70;99.90;;;;;;4943604;28;20436;-52
2023/04/12 09:39:33;;;;;;;7.95;5.30;;;8.90;99.90;;;;;;4944077;28;20050;-52
2023/04/12 09:42:06;;;;;;;6.07;4.90;;;9.00;99.90;;;;;;4941644;28;20046;-53
2023/04/12 09:44:33;;;;;;;6.30;4.70;;;9.00;99.90;;;;;;4945516;28;20049;-53
2023/04/12 09:47:03;;;;;;;6.50;4.93;;;9.10;99.90;;;;;;4941093;28;20086;-54
2023/04/12 09:49:43;;;;;;;7.93;5.03;;;9.20;99.90;;;;;;4947876;28;20180;-55
2023/04/12 09:52:13;;;;;;;9.15;4.88;;;9.30;99.90;;;;;;4945755;28;20127;-56
2023/04/12 09:54:47;;;;;;;6.72;4.85;;;9.40;99.90;;;;;;4955538;28;20073;-53
2023/04/12 09:57:17;;;;;;;5.40;4.90;;;9.50;99.90;;;;;;4946977;28;20062;-52
2023/04/12 09:59:47;;;;;;;7.50;5.00;;;9.60;99.90;;;;;;4943883;28;20383;-52
2023/04/12 10:02:17;;;;;;;6.63;5.43;;;9.80;99.90;;;;;;4932490;28;20162;-53
2023/04/12 10:04:44;;;;;;;5.80;4.68;;;10.00;99.90;;;;;;4944835;28;20061;-54
2023/04/12 10:07:10;;;;;;;5.80;4.60;;;10.10;99.90;;;;;;4943209;28;20053;-53
2023/04/12 10:09:40;;;;;;;6.82;5.10;;;10.30;99.90;;;;;;4944869;28;20055;-56
2023/04/12 10:12:08;;;;;;;7.40;4.90;;;10.40;99.90;;;;;;4945631;28;20409;-52
2023/04/12 10:14:34;;;;;;;5.88;5.00;;;10.50;99.90;;;;;;4943465;28;20104;-53
2023/04/12 10:17:02;;;;;;;5.38;4.88;;;10.50;99.90;;;;;;4943139;28;20054;-53
2023/04/12 10:19:29;;;;;;;8.07;4.75;;;10.60;99.90;;;;;;4945286;28;20173;-53
2023/04/12 10:21:56;;;;;;;8.23;4.85;;;10.60;99.90;;;;;;4944047;28;20061;-52
2023/04/12 10:24:26;;;;;;;8.07;5.30;;;10.60;99.90;;;;;;4944582;28;20043;-53
2023/04/12 10:26:54;;;;;;;8.13;4.97;;;10.60;99.90;;;;;;4943378;28;20047;-53
2023/04/12 10:29:29;;;;;;;13.80;5.18;;;10.70;99.90;;;;;;4947377;28;20042;-53
2023/04/12 10:32:19;;;;;;;10.38;5.35;;;10.90;99.90;;;;;;4942524;28;20242;-53
2023/04/12 10:34:53;;;;;;;9.43;4.40;;;11.00;99.90;;;;;;4946105;28;20500;-55
2023/04/12 10:37:19;;;;;;;9.68;4.43;;;11.00;99.90;;;;;;4946636;28;20074;-54
2023/04/12 10:39:51;;;;;;;10.38;4.95;;;11.00;99.90;;;;;;4945448;28;20123;-53
2023/04/12 10:42:26;;;;;;;12.45;4.65;;;11.00;99.90;;;;;;4943130;28;20047;-52
2023/04/12 10:45:21;;;;;;;7.60;3.30;;;11.10;99.90;;;;;;4956347;28;20059;-53
2023/04/12 10:47:47;;;;;;;8.70;4.18;;;11.10;99.90;;;;;;4939173;28;20835;-53
2023/04/12 10:50:18;;;;;;;9.60;3.92;;;11.20;99.90;;;;;;4941172;28;20045;-53
2023/04/12 10:53:14;;;;;;;10.50;4.28;;;11.20;99.90;;;;;;4943140;28;20054;-53
2023/04/12 10:55:44;;;;;;;11.70;4.50;;;11.20;99.90;;;;;;4942979;28;20542;-54
2023/04/12 10:58:30;;;;;;;17.13;4.28;;;11.40;99.90;;;;;;4947423;28;20529;-56
2023/04/12 11:00:56;;;;;;;8.00;3.75;;;11.50;99.90;;;;;;4944000;28;20055;-56
2023/04/12 11:03:26;;;;;;;8.13;3.40;;;11.60;99.90;;;;;;4944831;28;20050;-54
2023/04/12 11:05:59;;;;;;;9.32;3.47;;;11.60;99.90;;;;;;4944857;28;20649;-53
2023/04/12 11:08:29;;;;;;;9.02;3.35;;;11.50;99.90;;;;;;4945441;28;20039;-52
2023/04/12 11:11:02;;;;;;;12.90;3.80;;;11.50;99.90;;;;;;4934267;28;20564;-53
2023/04/12 11:13:34;;;;;;;11.25;3.50;;;11.50;99.90;;;;;;4944090;28;20050;-57
2023/04/12 11:16:05;;;;;;;8.77;3.10;;;11.50;99.90;;;;;;4940044;28;20069;-57
2023/04/12 11:18:34;;;;;;;8.70;3.42;;;11.50;99.90;;;;;;4945374;28;20399;-55
2023/04/12 11:21:02;;;;;;;11.85;3.65;;;11.50;99.90;;;;;;4936996;28;20058;-55
2023/04/12 11:23:29;;;;;;;9.25;3.60;;;11.50;99.90;;;;;;4943856;28;20057;-54
2023/04/12 11:25:56;;;;;;;10.00;3.28;;;11.50;99.90;;;;;;4944525;28;20046;-56
2023/04/12 11:28:22;;;;;;;13.88;3.92;;;11.50;99.90;;;;;;4942553;28;20039;-54
2023/04/12 11:30:57;;;;;;;16.95;5.07;;;11.50;99.90;;;;;;4949636;28;20043;-56
2023/04/12 11:33:37;;;;;;;14.45;3.67;;;11.50;99.90;;;;;;4943777;28;20417;-57
2023/04/12 11:36:13;;;;;;;14.88;2.95;;;11.50;99.90;;;;;;4923427;28;20109;-53
2023/04/12 11:38:39;;;;;;;16.55;3.20;;;11.50;99.90;;;;;;4934541;28;20118;-55
2023/04/12 11:41:07;;;;;;;12.90;2.95;;;11.50;99.90;;;;;;4922504;28;20051;-56
2023/04/12 11:43:35;;;;;;;13.32;3.63;;;11.50;99.90;;;;;;4926545;29;20356;-55
2023/04/12 11:46:01;;;;;;;14.18;4.13;;;11.50;99.90;;;;;;4927374;28;20063;-55
2023/04/12 11:48:27;;;;;;;10.30;3.40;;;11.50;99.90;;;;;;4926982;29;20647;-57
2023/04/12 11:50:53;;;;;;;10.68;3.20;;;11.60;99.90;;;;;;4926523;28;20419;-54
2023/04/12 11:53:21;;;;;;;12.65;3.42;;;11.70;99.90;;;;;;4923300;29;20126;-57
2023/04/12 11:55:53;;;;;;;15.07;3.55;;;11.80;99.90;;;;;;4925197;29;20142;-57
2023/04/12 11:58:22;;;;;;;15.40;3.00;;;12.00;99.90;;;;;;4924990;28;20089;-55
2023/04/12 12:00:49;;;;;;;13.35;2.88;;;12.10;99.90;;;;;;4915110;29;20498;-55
2023/04/12 12:03:15;;;;;;;13.25;2.92;;;12.20;99.90;;;;;;4930841;29;20567;-55
2023/04/12 12:05:41;;;;;;;14.50;3.30;;;12.20;99.90;;;;;;4928733;28;20051;-55
2023/04/12 12:08:08;;;;;;;20.55;3.97;;;12.20;99.90;;;;;;4929300;28;20193;-57
2023/04/12 12:10:35;;;;;;;17.17;2.90;;;12.20;99.90;;;;;;4931390;29;20049;-57
2023/04/12 12:13:01;;;;;;;15.75;3.53;;;12.20;99.90;;;;;;4928775;29;20043;-55
2023/04/12 12:15:30;;;;;;;16.98;3.22;;;12.20;99.90;;;;;;4926128;29;20054;-55
2023/04/12 12:17:56;;;;;;;17.27;2.70;;;12.20;99.90;;;;;;4927429;29;20134;-54
2023/04/12 12:20:23;;;;;;;16.90;2.70;;;12.20;99.90;;;;;;4915524;28;20101;-57
2023/04/12 12:22:49;;;;;;;16.02;2.53;;;12.20;99.90;;;;;;4929233;29;20443;-56
2023/04/12 12:25:17;;;;;;;13.02;2.50;;;12.20;99.90;;;;;;4924614;28;20186;-57
2023/04/12 12:27:47;;;;;;;16.83;2.92;;;12.10;99.90;;;;;;4913094;28;20054;-58
2023/04/12 12:30:16;;;;;;;16.60;3.17;;;12.10;99.90;;;;;;4922779;28;20438;-54
2023/04/12 12:32:43;;;;;;;17.45;3.28;;;12.10;99.90;;;;;;4914472;29;20404;-57
2023/04/12 12:35:11;;;;;;;12.45;2.78;;;12.10;99.90;;;;;;4925000;28;20044;-56
2023/04/12 12:37:46;;;;;;;12.13;2.80;;;12.20;99.90;;;;;;4924557;28;20054;-58
2023/04/12 12:40:12;;;;;;;14.07;2.80;;;12.20;99.90;;;;;;4923001;28;20043;-54
2023/04/12 12:42:47;;;;;;;17.45;3.25;;;12.40;99.90;;;;;;4920862;28;20138;-54
2023/04/12 12:45:14;;;;;;;16.30;3.22;;;12.50;99.90;;;;;;4926543;29;20446;-53
2023/04/12 12:47:50;;;;;;;10.10;2.42;;;12.60;99.90;;;;;;4923725;28;20056;-57
2023/04/12 12:50:18;;;;;;;17.67;3.00;;;12.70;99.90;;;;;;4919425;29;20051;-58
2023/04/12 12:52:45;;;;;;;23.45;3.15;;;13.00;99.90;;;;;;4921905;29;21957;-56
2023/04/12 12:55:15;;;;;;;14.75;3.50;;;13.30;99.90;;;;;;4927254;28;20044;-54